Search for airport 
image banner adimage banner adimage banner ad
image banner ad

18CN - Ucsf Medical Center At Mission Bay

Located in San Francisco, United States

ICAO - 18CN, IATA -

Data provided by Airmate  

General information

Coordinates: N37°45'57" W122°23'25"
Elevation is 156 feet MSL.
 
View others Airports in California

Operational data

Special qualification required
Current time UTC:
Current local time:
Weather at : KOAK - Metropolitan Oakland Intl ( 16 km )
METAR: KOAK 212253Z 30013KT 10SM FEW040 FEW200 29/12 A3003 RMK AO2 SLP168 FU FEW040 T02940117
TAF: KOAK 211736Z 2118/2224 26004KT P6SM FEW045 FEW200 FM212200 29010KT 6SM HZ FEW200 FM220200 30008KT P6SM FEW200 FM221000 VRB05KT P6SM SCT012 FM221700 VRB05KT P6SM FEW006 SCT012 FM222100 29011KT P6SM FEW200
View NOTAMs / SUP AIP / TFR affecting this airport [VIEW]
Communications frequencies: [VIEW]

Runways:

Airport contact information

Address: San Francisco United States

Satellite view of 18CN